Date,TemperatureHighF,TemperatureAvgF,TemperatureLowF,DewpointHighF,DewpointAvgF,DewpointLowF,HumidityHigh,HumidityAvg,HumidityLow,PressureMaxIn,PressureMinIn,WindSpeedMaxMPH,WindSpeedAvgMPH,GustSpeedMaxMPH,PrecipitationSumIn
2013-1-1,28,18,11,18,11,3,80,73,61,30.19,30.09,3,1,5,0.00
2013-1-2,16,12,7,9,5,-1,76,73,68,30.17,30.05,2,0,3,0.00
2013-1-3,30,18,6,19,8,-2,75,66,58,30.05,29.91,10,2,18,0.00
2013-1-4,38,29,22,27,20,13,75,68,58,30.05,29.96,9,3,17,0.03
2013-1-5,30,27,24,22,19,15,81,71,63,29.99,29.90,9,2,14,0.00
2013-1-6,37,31,24,28,24,18,80,76,66,29.97,29.86,9,2,15,0.03
2013-1-7,43,37,33,35,31,26,91,76,66,29.97,29.81,10,5,20,0.02
2013-1-8,43,39,36,37,33,29,89,80,70,30.00,29.81,9,5,22,0.00
2013-1-9,42,36,27,32,27,19,78,70,61,29.81,29.60,5,3,12,0.00
2013-1-10,31,26,23,22,17,14,76,68,56,29.79,29.68,7,2,10,0.00
2013-1-11,27,23,18,16,12,9,71,63,51,30.00,29.75,4,2,7,0.00
2013-1-12,25,18,14,11,7,4,68,60,48,30.04,29.92,9,3,14,0.00
2013-1-13,26,19,14,8,5,2,68,55,42,30.13,29.99,5,1,8,0.03
2013-1-14,34,25,16,20,10,1,67,54,46,30.18,30.08,10,5,20,0.00
2013-1-15,41,34,26,26,19,14,64,56,42,30.35,30.14,9,3,17,0.00
2013-1-16,48,40,36,24,19,15,49,42,35,30.33,30.22,8,3,12,0.00
2013-1-17,48,38,32,23,19,15,58,46,36,30.24,30.13,12,4,18,0.00
2013-1-18,47,37,32,24,19,16,59,49,37,30.14,30.08,11,4,19,0.00
2013-1-19,50,38,32,24,19,15,57,46,32,30.16,30.10,8,3,13,0.00
2013-1-20,43,34,29,20,17,12,56,50,38,30.19,30.07,10,2,19,0.00
2013-1-21,48,35,25,19,14,9,53,44,29,30.08,29.97,12,5,23,0.00
2013-1-22,42,34,28,21,16,11,59,48,40,29.97,29.83,11,2,17,0.00
2013-1-23,47,39,35,33,25,17,78,57,40,29.90,29.70,5,2,18,0.00
2013-1-24,47,40,33,36,32,29,89,75,59,29.98,29.90,7,2,11,0.00
2013-1-25,44,41,37,38,36,33,88,83,75,29.92,29.72,8,4,16,0.00
2013-1-26,39,34,30,33,24,18,89,67,52,29.79,29.71,4,2,9,0.00
2013-1-27,33,30,28,21,20,20,70,67,61,29.83,29.80,6,4,9,0.00
2013-1-30,46,46,46,33,33,33,60,60,60,30.21,30.20,3,1,5,0.00
2013-2-3,51,48,44,29,26,25,48,43,38,30.02,30.00,2,1,3,0.00
2013-2-15,52,51,50,36,35,35,56,54,53,30.18,30.12,2,1,3,0.00
2013-2-23,34,34,34,23,23,22,64,63,62,30.01,30.00,1,0,2,0.00
2013-2-25,33,33,33,24,24,24,70,70,70,29.95,29.95,3,2,7,0.00
2013-2-28,50,48,45,39,37,36,71,65,60,30.23,30.15,4,3,10,0.00
2013-3-1,57,50,45,37,34,30,57,53,46,30.24,30.13,8,2,15,0.00
2013-3-2,53,49,42,34,30,27,59,49,39,30.14,29.95,7,2,11,0.00
2013-3-6,40,37,35,32,30,27,83,76,59,29.56,29.47,6,3,9,0.00
2013-3-7,38,37,36,24,23,23,59,58,55,29.81,29.80,0,0,1,0.00
2013-3-8,34,34,34,30,30,30,85,85,85,29.87,29.86,2,2,5,0.00
2013-3-9,50,46,39,22,20,18,48,36,31,30.23,30.18,3,2,7,0.00
2013-3-10,56,49,42,34,30,21,66,49,26,30.20,30.16,5,2,11,0.00
2013-3-11,53,48,42,38,36,31,76,64,55,30.19,30.07,6,2,11,0.00
2013-3-12,59,49,39,38,31,23,79,52,30,30.09,29.98,8,3,12,0.00
2013-3-13,62,51,44,36,30,22,59,46,35,30.08,30.00,8,2,12,0.00
2013-3-14,65,53,44,34,27,18,57,39,21,30.03,29.94,7,3,16,0.00
2013-3-15,57,47,41,37,32,26,68,55,39,30.07,29.99,4,1,6,0.00
2013-3-16,50,43,36,31,28,23,71,54,43,30.00,29.80,7,4,15,0.00
2013-3-19,47,44,42,38,36,27,84,75,45,29.77,29.64,2,1,6,0.00
2013-3-20,47,43,40,40,36,25,86,75,47,29.76,29.52,7,3,20,0.00
2013-3-21,38,38,38,18,18,18,44,44,44,29.97,29.97,5,4,7,0.00
2013-3-25,48,45,40,29,27,26,58,50,45,29.84,29.78,4,2,6,0.00
2013-3-26,47,44,37,35,33,26,79,65,58,29.83,29.81,4,2,5,0.00
2013-3-27,56,48,42,40,38,36,83,67,48,29.87,29.77,5,1,9,0.00
2013-3-28,56,46,41,43,39,36,88,76,54,29.99,29.86,5,1,7,0.00
2013-3-29,58,48,40,43,39,36,89,72,52,30.07,29.99,4,2,11,0.00
2013-3-30,66,52,41,44,40,37,87,64,39,30.08,29.94,4,2,9,0.00
2013-3-31,64,52,43,41,37,33,70,57,37,29.94,29.80,4,2,11,0.00
2013-4-1,62,51,43,42,38,35,75,63,44,29.97,29.84,5,3,9,0.00
2013-4-2,61,49,41,40,37,34,77,63,44,30.03,29.95,6,3,11,0.00
2013-4-3,66,52,41,37,33,27,76,52,28,30.01,29.84,7,3,15,0.00
2013-4-4,61,52,45,41,36,33,72,54,41,29.84,29.64,7,2,13,0.00
2013-4-5,55,46,41,39,36,33,80,69,48,29.85,29.77,6,3,13,0.00
2013-4-6,53,44,39,37,34,30,83,69,43,29.85,29.67,6,3,12,0.00
2013-4-7,48,41,33,36,30,22,85,66,46,29.73,29.55,7,3,14,0.00
2013-4-8,46,38,30,26,23,20,69,56,44,30.03,29.72,7,4,13,0.00
2013-4-9,55,46,31,34,28,22,77,53,30,30.14,30.08,6,2,12,0.00
2013-4-10,59,48,39,43,35,28,73,60,39,30.10,29.96,9,4,21,0.00
2013-4-11,53,44,35,29,26,22,71,50,34,30.07,29.96,5,2,10,0.00
2013-4-12,57,51,36,32,27,19,72,41,25,29.88,29.64,7,4,14,0.00
2013-4-13,46,39,32,30,20,18,61,47,34,29.80,29.64,9,4,16,0.58
2013-4-14,43,35,30,26,21,17,73,56,43,29.82,29.63,6,2,10,0.00
2013-4-15,39,34,31,31,28,26,85,79,64,29.87,29.65,6,3,12,0.17
2013-4-16,40,34,30,30,26,23,87,74,51,30.09,29.85,4,3,10,0.14
2013-4-17,48,38,30,26,21,17,77,53,34,30.16,30.09,5,2,12,0.00
2013-4-18,58,45,35,37,31,24,69,59,45,30.15,30.06,6,3,10,0.00
2013-4-19,56,47,41,40,35,31,77,63,43,30.06,29.92,11,4,15,0.00
2013-4-20,56,46,36,35,31,26,76,57,32,30.03,29.96,7,3,11,0.00
2013-4-21,57,47,38,38,33,28,74,59,45,30.03,29.95,8,4,14,0.00
2013-4-22,52,43,36,34,25,14,78,52,30,30.20,30.03,5,2,10,0.00
2013-4-23,59,44,31,22,13,2,57,33,10,30.19,29.95,5,2,10,0.00
2013-4-24,64,49,35,23,17,12,43,30,13,30.12,29.90,3,1,6,0.00
2013-4-25,69,56,44,34,26,19,46,32,25,30.00,29.87,7,3,12,0.00
2013-4-26,72,59,47,37,30,16,55,37,12,30.09,30.00,6,3,11,0.00
2013-4-27,68,57,48,36,30,26,53,37,24,30.10,29.98,8,4,15,0.00
2013-4-28,61,52,43,36,29,25,55,42,30,30.03,29.91,6,2,13,0.00
2013-4-29,55,48,37,39,31,22,72,53,34,29.91,29.83,8,4,17,0.00
2013-4-30,50,39,29,23,19,17,62,47,30,30.17,29.89,6,2,11,0.00
2013-5-1,59,45,31,25,20,16,65,41,20,30.33,30.18,3,2,7,0.00
2013-5-2,70,55,39,26,17,-4,55,27,5,30.33,30.10,4,2,7,0.00
2013-5-3,67,57,47,31,27,20,46,32,22,30.13,30.01,5,2,10,0.00
2013-5-4,66,56,49,33,29,24,45,36,29,30.03,29.81,7,4,16,0.00
2013-5-5,69,57,46,35,31,26,51,38,28,29.82,29.67,7,4,14,0.00
2013-5-6,75,62,52,40,33,27,50,34,20,29.76,29.65,5,3,11,0.00
2013-5-7,73,62,52,44,40,31,67,47,22,29.82,29.72,8,3,15,0.00
2013-5-8,76,62,51,46,40,30,69,48,20,29.94,29.82,6,2,10,0.00
2013-5-9,78,63,52,48,43,36,68,51,23,30.00,29.91,7,3,16,0.00
2013-5-10,81,67,56,49,43,35,64,45,22,30.05,29.97,5,2,11,0.00
2013-5-11,82,69,58,52,47,36,66,47,22,30.05,29.90,7,3,12,0.00
2013-5-12,81,68,61,52,47,43,67,49,27,29.95,29.84,5,2,10,0.00
2013-5-13,70,59,48,48,41,33,69,52,36,29.96,29.85,7,2,20,0.00
2013-5-14,64,53,43,38,35,32,69,53,34,29.98,29.86,5,2,8,0.00
2013-5-15,61,52,45,45,38,32,72,60,38,29.92,29.83,4,1,7,0.02
2013-5-16,56,50,44,45,40,36,81,70,53,29.86,29.75,5,1,10,0.03
2013-5-17,55,48,43,41,38,34,85,69,52,29.91,29.80,4,1,8,0.03
2013-5-18,56,46,39,45,36,32,77,67,49,30.08,29.92,5,2,11,0.05
2013-5-19,61,50,40,41,35,33,77,60,38,30.16,30.07,6,3,12,0.00
2013-5-20,71,56,42,41,36,29,74,50,23,30.13,29.77,4,2,8,0.00
2013-5-21,58,49,36,41,31,22,73,51,33,29.76,29.60,6,3,16,0.00
2013-5-22,48,40,33,32,26,21,70,58,50,29.79,29.74,6,4,18,0.00
2013-5-23,53,44,35,32,28,25,68,54,38,29.85,29.78,5,2,10,0.00
2013-5-24,57,46,39,33,30,28,73,55,36,29.89,29.81,5,2,10,0.00
2013-5-25,60,49,38,41,34,30,78,58,34,29.89,29.79,5,2,10,0.00
2013-5-26,56,50,45,43,40,35,86,69,49,29.89,29.81,4,2,8,0.12
2013-5-27,57,49,44,48,40,34,82,72,64,29.87,29.68,5,3,12,0.03
2013-5-28,64,52,44,42,37,33,76,58,36,29.77,29.64,4,2,12,0.02
2013-5-29,62,51,44,44,38,33,83,62,41,29.84,29.58,7,3,18,0.14
2013-5-30,62,48,39,36,33,31,74,57,38,30.03,29.84,5,2,10,0.00
2013-5-31,68,53,38,38,33,29,78,51,25,30.10,30.02,3,2,9,0.00
2013-6-1,73,59,47,43,38,35,69,48,28,30.07,29.86,6,2,11,0.00
2013-6-2,72,58,49,44,39,29,78,52,24,29.90,29.80,6,2,11,0.00
2013-6-3,74,59,47,40,34,26,71,43,23,29.91,29.83,4,2,11,0.00
2013-6-4,77,62,49,37,31,26,45,32,20,29.95,29.88,4,2,7,0.00
2013-6-5,82,68,54,46,40,33,59,38,20,29.95,29.82,5,2,8,0.00
2013-6-6,84,69,57,51,46,38,64,45,22,29.89,29.80,6,2,11,0.00
2013-6-7,81,68,57,49,46,40,68,47,29,29.93,29.85,6,2,11,0.00
2013-6-8,84,68,57,47,39,22,66,40,12,29.95,29.85,6,2,12,0.00
2013-6-9,81,66,56,47,38,28,61,39,15,29.88,29.72,6,2,10,0.00
2013-6-10,76,61,49,38,33,28,56,38,19,29.77,29.62,6,2,12,0.00
2013-6-11,62,53,45,38,34,30,66,51,34,29.92,29.72,5,2,12,0.00
2013-6-12,62,50,41,36,33,30,68,52,33,29.95,29.88,6,2,14,0.00
2013-6-13,54,48,43,43,35,30,73,60,48,30.07,29.95,7,2,13,0.19
2013-6-14,69,55,42,39,33,27,75,48,23,30.08,29.86,5,2,10,0.00
2013-6-15,76,62,48,46,38,29,67,44,20,29.87,29.74,6,2,10,0.00
2013-6-16,76,63,54,54,44,40,67,52,30,29.94,29.82,6,2,9,0.12
2013-6-17,74,62,52,48,44,42,75,55,34,29.95,29.75,4,2,9,0.00
2013-6-18,60,53,48,45,41,35,77,65,46,29.82,29.72,6,2,14,0.00
2013-6-19,58,49,44,45,38,35,80,67,50,29.91,29.76,4,1,8,0.22
2013-6-20,61,49,41,39,36,34,77,60,41,29.95,29.87,6,2,11,0.00
2013-6-21,59,51,45,41,39,35,78,63,49,30.00,29.95,6,2,10,0.00
2013-6-22,72,59,46,44,41,37,74,54,32,29.98,29.78,4,2,8,0.00
2013-6-23,61,58,55,54,49,42,91,75,55,29.79,29.59,4,1,8,0.31
2013-6-24,56,53,49,52,48,45,91,84,78,29.66,29.56,4,1,7,0.16
2013-6-25,63,56,51,52,47,44,87,73,59,29.79,29.64,5,2,12,0.06
2013-6-26,64,58,53,55,51,46,83,77,72,29.95,29.79,3,1,8,0.00
2013-6-27,57,54,52,53,50,48,92,86,81,29.99,29.93,2,1,3,0.00
2013-7-2,92,85,77,56,48,42,48,30,20,29.92,29.87,5,2,11,0.00
2013-7-3,88,78,67,60,50,40,74,38,29,29.98,29.86,6,3,11,0.00
2013-7-4,83,72,60,45,38,32,54,32,17,29.92,29.77,6,3,11,0.00
2013-7-5,77,63,54,45,37,26,69,41,20,29.87,29.72,5,2,9,0.00
2013-7-6,82,65,50,45,35,28,61,36,17,29.82,29.66,4,2,9,0.00
2013-7-7,83,66,57,48,44,40,63,46,23,29.81,29.68,3,1,6,0.00
2013-7-8,85,70,57,48,39,30,64,36,15,29.91,29.81,6,2,10,0.00
2013-7-9,88,80,67,50,44,33,49,30,14,29.95,29.83,6,2,12,0.00
2013-7-10,87,74,64,52,45,34,57,39,19,29.94,29.72,5,2,9,0.00
2013-7-11,79,67,57,48,42,37,65,43,23,29.84,29.73,6,2,14,0.00
2013-7-12,76,63,54,42,36,21,59,38,13,29.88,29.75,5,2,12,0.00
2013-7-13,75,62,49,40,34,24,65,38,20,29.96,29.87,4,2,8,0.00
2013-7-14,86,70,55,44,32,22,43,26,14,29.97,29.81,6,2,11,0.00
2013-7-15,83,70,57,44,38,30,56,33,18,29.86,29.71,5,2,9,0.00
2013-7-16,81,69,61,44,36,29,36,30,21,29.83,29.72,6,3,10,0.00
2013-7-17,84,71,60,43,37,30,53,32,14,29.98,29.83,6,4,15,0.00
2013-7-18,88,73,60,48,38,23,53,33,10,30.00,29.86,4,2,10,0.00
2013-7-19,87,74,60,48,30,9,46,24,6,29.95,29.81,4,2,8,0.00
2013-7-20,90,75,63,48,31,3,50,25,5,29.87,29.75,4,2,9,0.00
2013-7-21,90,74,62,46,32,8,54,26,5,29.80,29.71,6,3,13,0.00
2013-7-22,90,74,61,42,32,9,48,26,5,29.85,29.78,6,2,11,0.00
2013-7-23,90,76,64,46,36,24,47,27,10,29.88,29.77,6,2,11,0.00
2013-7-24,87,75,64,47,36,21,48,28,11,29.90,29.82,4,2,10,0.00
2013-7-25,90,76,65,48,34,19,48,26,10,29.92,29.85,7,2,11,0.00
2013-7-26,92,77,66,41,27,10,33,17,5,29.95,29.86,7,2,15,0.00
2013-7-27,82,70,61,43,33,21,47,28,11,29.96,29.78,6,2,10,0.00
2013-7-28,81,67,56,41,34,23,49,33,13,29.81,29.72,6,3,11,0.00
2013-7-29,79,67,56,44,39,31,58,39,18,29.85,29.73,4,2,8,0.00
2013-7-30,82,68,56,45,35,17,56,34,10,29.96,29.85,6,2,11,0.00
2013-7-31,79,68,62,49,43,31,59,42,20,29.95,29.82,5,1,9,0.02
2013-8-1,68,60,53,55,48,42,84,65,47,29.91,29.83,5,2,10,0.26
2013-8-2,72,60,50,46,42,37,73,54,30,29.95,29.88,5,3,9,0.00
2013-8-3,77,65,53,47,40,30,73,44,20,29.96,29.84,5,2,8,0.00
2013-8-4,83,70,58,49,44,37,62,41,22,29.92,29.79,6,2,10,0.00
2013-8-5,82,71,61,51,44,32,67,41,18,29.89,29.79,5,2,12,0.00
2013-8-6,86,72,60,52,43,30,59,38,15,29.88,29.78,8,3,11,0.00
2013-8-7,78,69,62,45,42,36,50,38,22,29.88,29.83,6,2,10,0.00
2013-8-8,79,69,60,47,42,35,53,39,22,29.87,29.77,4,1,8,0.00
2013-8-9,78,67,59,57,48,44,73,52,30,29.85,29.73,5,2,15,0.08
2013-8-10,70,62,56,52,48,45,71,63,47,29.92,29.82,6,2,13,0.03
2013-8-11,75,63,54,50,47,42,74,57,32,29.93,29.83,7,3,13,0.00
2013-8-12,78,66,56,53,49,44,75,56,31,29.92,29.82,4,2,8,0.00
2013-8-13,80,68,57,49,46,38,73,47,24,29.96,29.83,7,3,14,0.00
2013-8-14,83,71,61,49,46,40,56,42,23,29.89,29.77,4,2,10,0.00
2013-8-15,83,70,60,52,47,39,62,46,21,29.87,29.77,6,2,11,0.00
2013-8-16,81,70,62,56,53,50,70,56,34,29.92,29.84,5,2,8,0.00
2013-8-17,79,68,60,56,52,48,77,57,36,29.95,29.84,6,2,10,0.00
2013-8-18,82,69,58,52,47,39,69,49,25,29.98,29.88,5,2,8,0.00
2013-8-19,82,70,60,50,47,40,68,46,23,29.96,29.85,6,2,10,0.00
2013-8-20,79,68,56,50,35,14,70,37,9,29.96,29.85,3,2,8,0.00
2013-8-21,78,68,59,43,35,26,52,31,20,29.93,29.83,4,2,7,0.00
2013-8-22,76,66,59,54,45,34,70,49,30,29.87,29.80,6,2,13,0.05
2013-8-23,75,64,55,51,48,45,73,58,36,29.82,29.72,7,4,15,0.00
2013-8-24,73,63,54,51,48,45,76,61,38,29.81,29.68,5,1,9,0.00
2013-8-25,67,59,54,58,51,48,84,74,58,29.82,29.69,6,1,12,0.14
2013-8-26,71,60,53,51,48,45,79,64,42,29.84,29.79,5,3,10,0.00
2013-8-27,81,65,52,51,47,41,77,55,25,29.86,29.67,6,2,13,0.00
2013-8-28,83,72,58,52,46,39,73,43,24,29.83,29.70,6,3,15,0.00
2013-8-29,78,67,61,52,49,42,70,53,31,29.97,29.80,5,2,10,0.00
2013-8-30,79,66,56,54,50,44,76,57,30,30.04,29.87,5,2,11,0.00
2013-8-31,84,68,56,54,50,46,79,54,28,29.96,29.74,4,2,8,0.00
2013-9-1,86,71,60,51,42,22,64,40,10,29.81,29.65,5,2,14,0.00
2013-9-2,84,68,57,51,48,38,71,52,20,29.85,29.71,6,2,12,0.00
2013-9-3,80,65,56,52,47,34,77,56,20,29.88,29.79,6,3,10,0.00
2013-9-4,80,65,56,49,46,36,73,54,21,29.90,29.82,5,2,10,0.00
2013-9-5,69,59,53,51,47,42,74,63,44,29.93,29.79,6,2,15,0.00
2013-9-6,68,58,50,49,46,42,82,65,48,30.02,29.93,6,3,12,0.03
2013-9-7,74,61,50,51,46,44,82,62,36,30.00,29.87,5,2,9,0.00
2013-9-8,73,63,54,50,47,42,77,58,35,29.98,29.93,4,2,8,0.00
2013-9-9,78,66,56,48,43,34,63,46,23,29.96,29.85,5,2,8,0.00
2013-9-10,81,69,58,49,44,38,63,43,23,29.91,29.82,4,2,10,0.00
2013-9-11,82,70,58,50,45,40,66,42,24,29.95,29.86,4,2,7,0.00
2013-9-12,85,73,63,50,43,36,52,36,21,29.92,29.81,4,2,6,0.00
2013-9-13,76,70,61,51,43,37,58,39,25,29.85,29.73,3,1,6,0.00
2013-9-14,83,70,61,52,47,41,63,45,24,29.78,29.66,4,2,6,0.00
2013-9-15,84,69,57,50,43,27,66,43,13,29.73,29.57,5,2,12,0.00
2013-9-16,68,59,53,46,43,41,67,57,44,29.82,29.74,4,2,10,0.00
2013-9-17,57,52,47,46,42,37,79,69,58,29.86,29.70,6,2,11,0.00
2013-9-18,62,52,45,40,37,32,72,58,35,29.97,29.86,4,2,10,0.00
2013-9-19,72,57,44,40,35,32,67,47,24,29.94,29.75,5,2,8,0.00
2013-9-20,72,58,48,43,37,32,71,48,24,29.76,29.53,7,3,11,0.00
2013-9-21,61,53,47,44,40,38,78,63,47,29.68,29.59,5,2,12,0.02
2013-9-22,57,50,45,45,40,38,78,69,54,29.76,29.66,6,4,15,0.00
2013-9-23,61,53,48,44,40,35,67,60,48,29.88,29.76,5,2,11,0.00
2013-9-24,51,48,43,43,39,36,84,72,60,29.86,29.72,4,1,7,0.09
2013-9-25,50,44,40,37,34,31,83,70,54,29.86,29.71,4,2,10,0.02
2013-9-26,51,44,38,36,32,29,74,63,52,30.03,29.86,4,2,8,0.00
2013-9-27,58,47,37,43,35,29,79,66,35,30.04,29.91,7,4,14,0.00
2013-9-28,61,52,48,49,44,42,87,75,55,29.91,29.55,7,4,15,0.39
2013-9-29,50,46,42,48,41,37,95,84,70,29.69,29.48,7,3,14,0.89
2013-9-30,50,45,38,48,35,31,94,70,56,29.90,29.52,6,3,20,0.06
2013-10-1,51,43,38,38,32,28,78,66,53,30.05,29.88,6,3,13,0.00
2013-10-2,46,39,34,37,30,26,82,70,53,30.04,29.90,6,2,10,0.00
2013-10-3,47,39,33,33,31,29,87,72,54,30.26,29.99,3,1,7,0.00
2013-10-4,53,43,36,34,30,27,81,63,37,30.33,30.24,2,1,6,0.00
2013-10-5,64,49,38,36,31,25,71,50,31,30.27,30.09,10,3,16,0.00
2013-10-6,67,54,44,36,31,26,56,42,29,30.11,29.90,9,4,16,0.00
2013-10-7,54,48,40,37,30,23,68,50,40,29.97,29.88,6,3,12,0.00
2013-10-8,47,42,38,37,33,29,83,71,57,29.98,29.82,6,2,12,0.02
2013-10-9,43,39,36,35,33,32,87,79,69,29.94,29.85,4,2,8,0.03
2013-10-10,53,44,36,34,32,29,78,64,48,29.94,29.81,6,2,10,0.00
2013-10-11,50,43,36,36,33,30,79,68,56,29.99,29.93,7,3,14,0.00
2013-10-12,45,41,38,36,34,31,85,75,62,30.01,29.91,3,1,6,0.00
2013-10-13,47,42,39,38,35,32,91,77,58,30.17,30.01,3,1,6,0.00
2013-10-14,51,42,36,35,32,27,84,68,47,30.25,30.16,3,1,7,0.00
2013-10-15,55,43,34,32,29,25,72,57,40,30.24,30.06,4,1,6,0.00
2013-10-16,58,46,41,30,26,24,59,47,31,30.06,29.99,8,4,14,0.00
2013-11-23,32,27,24,15,13,11,58,54,50,30.13,30.03,3,0,5,0.00
2013-11-24,46,34,26,21,16,13,57,49,31,30.07,29.98,10,2,18,0.00
2013-11-25,44,35,30,22,18,15,59,51,41,30.12,30.07,6,1,10,0.00
2013-11-26,44,34,28,23,20,16,61,54,41,30.08,29.92,3,0,6,0.00
2013-11-27,41,34,28,25,21,19,70,60,52,29.93,29.82,3,1,4,0.00
2013-11-28,44,32,27,29,23,20,75,68,55,29.98,29.88,7,1,11,0.00
2013-11-29,50,43,37,29,25,23,57,50,39,30.10,30.00,7,3,13,0.00
2013-11-30,50,44,40,36,32,28,71,64,55,30.17,30.09,7,2,14,0.00
2013-12-1,53,47,43,43,37,31,85,68,56,30.09,29.76,9,6,22,0.00
2013-12-2,47,36,27,36,28,16,89,71,57,29.82,29.69,7,2,11,0.11
2013-12-3,27,22,15,20,12,2,79,65,54,29.97,29.79,6,2,10,0.00
2013-12-4,19,14,11,3,0,-2,57,51,45,30.02,29.96,4,2,7,0.00
2013-12-5,24,13,5,7,1,-6,61,56,47,30.00,29.87,10,3,17,0.00
2013-12-6,14,10,7,3,1,0,75,68,61,29.89,29.71,7,3,12,0.00
2013-12-7,7,2,-5,1,-8,-16,75,64,53,30.03,29.75,10,4,17,0.00
2013-12-8,20,8,-2,5,-4,-14,63,57,49,30.23,30.02,10,4,19,0.00
2013-12-9,30,20,11,18,7,-2,66,56,48,30.23,30.14,13,8,24,0.00
2013-12-10,38,29,23,23,18,13,75,63,53,30.18,30.13,10,3,16,0.00
2013-12-11,39,30,23,26,21,16,81,71,58,30.14,30.05,10,5,17,0.00
2013-12-12,40,34,27,29,22,16,79,61,49,30.05,29.95,10,6,20,0.00
2013-12-13,42,36,32,32,30,28,85,79,67,30.24,30.01,10,3,15,0.00
2013-12-14,44,39,33,31,28,25,85,65,50,30.24,30.20,14,7,26,0.00
2013-12-15,49,42,38,35,25,17,75,52,35,30.25,30.18,10,4,18,0.00
2013-12-16,47,41,36,30,25,22,69,53,41,30.25,30.14,9,5,19,0.00
2013-12-17,52,44,39,27,22,19,54,42,34,30.14,29.96,11,5,23,0.00
2013-12-18,40,37,31,30,26,22,84,64,49,29.96,29.80,5,1,8,0.00
2013-12-19,31,26,22,24,13,9,77,59,45,30.04,29.83,7,2,12,0.00
2013-12-20,43,33,24,36,22,7,81,65,41,29.94,29.69,10,5,20,0.00
2013-12-21,46,40,35,34,30,26,80,69,51,30.02,29.73,8,3,16,0.00
2013-12-22,48,42,39,37,33,29,78,69,58,30.17,30.01,10,3,17,0.00
2013-12-23,50,43,36,37,30,25,73,60,50,30.28,30.10,9,4,17,0.00
2013-12-24,42,35,30,30,26,22,79,70,48,30.34,30.28,9,2,18,0.00
2013-12-25,47,40,33,25,22,19,68,49,36,30.28,30.19,13,7,22,0.00
2013-12-26,52,45,40,27,21,16,56,40,33,30.19,30.10,11,5,18,0.00
2013-12-27,48,43,38,24,20,15,54,41,31,30.10,29.99,13,5,21,0.00
2013-12-28,42,35,30,25,19,15,64,53,35,30.20,30.05,2,1,5,0.00
2013-12-29,42,37,29,23,17,13,62,45,36,30.19,30.04,10,4,17,0.00
2013-12-30,45,41,37,24,19,14,49,41,31,30.05,29.95,10,6,19,0.00
2013-12-31,49,44,40,24,20,17,50,39,33,30.10,29.99,8,3,13,0.00
2014-1-1,48,40,34,32,27,22,71,62,46,30.13,30.06,7,2,12,0.00
2014-1-2,54,44,36,33,27,25,66,52,40,30.07,29.84,11,6,20,0.00